sensor_id;sensor_type;location;lat;lon;timestamp;pressure;altitude;pressure_sealevel;temperature;humidity
36798;BME280;22748;8.426;99.512;2023-03-04T00:00:38;101236.03;;;27.12;68.94
36798;BME280;22748;8.426;99.512;2023-03-04T00:03:13;101254.81;;;27.12;68.70
36798;BME280;22748;8.426;99.512;2023-03-04T00:05:44;101251.47;;;27.09;68.45
36798;BME280;22748;8.426;99.512;2023-03-04T00:08:16;101264.69;;;27.11;68.38
36798;BME280;22748;8.426;99.512;2023-03-04T00:10:47;101266.72;;;27.09;68.81
36798;BME280;22748;8.426;99.512;2023-03-04T00:13:17;101271.88;;;27.11;69.09
36798;BME280;22748;8.426;99.512;2023-03-04T00:15:48;101276.59;;;27.08;68.82
36798;BME280;22748;8.426;99.512;2023-03-04T00:18:18;101281.13;;;27.08;68.93
36798;BME280;22748;8.426;99.512;2023-03-04T00:20:56;101278.50;;;27.00;69.11
36798;BME280;22748;8.426;99.512;2023-03-04T00:23:27;101282.88;;;27.01;68.95
36798;BME280;22748;8.426;99.512;2023-03-04T00:25:57;101288.88;;;27.03;68.98
36798;BME280;22748;8.426;99.512;2023-03-04T00:28:27;101287.22;;;27.02;68.89
36798;BME280;22748;8.426;99.512;2023-03-04T00:30:58;101293.22;;;27.04;69.06
36798;BME280;22748;8.426;99.512;2023-03-04T00:33:29;101290.53;;;27.04;69.20
36798;BME280;22748;8.426;99.512;2023-03-04T00:36:01;101297.59;;;27.05;68.77
36798;BME280;22748;8.426;99.512;2023-03-04T00:38:31;101301.09;;;27.05;68.89
36798;BME280;22748;8.426;99.512;2023-03-04T00:41:05;101312.47;;;27.07;69.46
36798;BME280;22748;8.426;99.512;2023-03-04T00:43:35;101311.66;;;27.07;69.45
36798;BME280;22748;8.426;99.512;2023-03-04T00:46:07;101312.31;;;27.09;69.03
36798;BME280;22748;8.426;99.512;2023-03-04T00:48:37;101309.63;;;27.09;69.21
36798;BME280;22748;8.426;99.512;2023-03-04T00:51:09;101322.00;;;27.10;69.41
36798;BME280;22748;8.426;99.512;2023-03-04T00:53:40;101319.31;;;27.10;69.24
36798;BME280;22748;8.426;99.512;2023-03-04T00:56:10;101330.22;;;27.08;68.99
36798;BME280;22748;8.426;99.512;2023-03-04T00:58:40;101327.72;;;27.07;69.64
36798;BME280;22748;8.426;99.512;2023-03-04T01:01:10;101337.16;;;27.03;69.31
36798;BME280;22748;8.426;99.512;2023-03-04T01:03:41;101335.47;;;27.02;69.20
36798;BME280;22748;8.426;99.512;2023-03-04T01:06:14;101331.13;;;27.01;69.67
36798;BME280;22748;8.426;99.512;2023-03-04T01:08:44;101333.81;;;27.01;69.37
36798;BME280;22748;8.426;99.512;2023-03-04T01:11:14;101335.47;;;27.02;69.76
36798;BME280;22748;8.426;99.512;2023-03-04T01:13:45;101336.50;;;27.01;69.92
36798;BME280;22748;8.426;99.512;2023-03-04T01:16:16;101350.22;;;26.98;69.59
36798;BME280;22748;8.426;99.512;2023-03-04T01:18:46;101354.75;;;26.97;69.82
36798;BME280;22748;8.426;99.512;2023-03-04T01:21:17;101357.28;;;26.99;69.88
36798;BME280;22748;8.426;99.512;2023-03-04T01:23:48;101357.94;;;27.01;70.14
36798;BME280;22748;8.426;99.512;2023-03-04T01:26:19;101361.81;;;26.98;70.20
36798;BME280;22748;8.426;99.512;2023-03-04T01:28:49;101364.66;;;26.97;69.82
36798;BME280;22748;8.426;99.512;2023-03-04T01:31:21;101368.16;;;26.97;69.99
36798;BME280;22748;8.426;99.512;2023-03-04T01:33:51;101375.00;;;27.00;70.25
36798;BME280;22748;8.426;99.512;2023-03-04T01:36:24;101369.31;;;27.03;70.12
36798;BME280;22748;8.426;99.512;2023-03-04T01:38:54;101363.41;;;27.07;70.08
36798;BME280;22748;8.426;99.512;2023-03-04T01:41:26;101379.78;;;27.13;69.74
36798;BME280;22748;8.426;99.512;2023-03-04T01:43:57;101376.94;;;27.14;70.37
36798;BME280;22748;8.426;99.512;2023-03-04T01:46:30;101382.13;;;27.16;70.14
36798;BME280;22748;8.426;99.512;2023-03-04T01:49:00;101383.94;;;27.15;70.59
36798;BME280;22748;8.426;99.512;2023-03-04T01:51:33;101382.28;;;27.14;70.12
36798;BME280;22748;8.426;99.512;2023-03-04T01:54:04;101387.28;;;27.17;70.15
36798;BME280;22748;8.426;99.512;2023-03-04T01:56:35;101385.25;;;27.19;70.13
36798;BME280;22748;8.426;99.512;2023-03-04T01:59:10;101389.47;;;27.22;70.56
36798;BME280;22748;8.426;99.512;2023-03-04T02:01:43;101387.44;;;27.24;70.88
36798;BME280;22748;8.426;99.512;2023-03-04T02:04:14;101397.16;;;27.25;70.35
36798;BME280;22748;8.426;99.512;2023-03-04T02:06:47;101402.34;;;27.26;70.80
36798;BME280;22748;8.426;99.512;2023-03-04T02:09:19;101405.88;;;27.27;70.75
36798;BME280;22748;8.426;99.512;2023-03-04T02:11:51;101400.34;;;27.28;70.74
36798;BME280;22748;8.426;99.512;2023-03-04T02:14:29;101410.03;;;27.29;70.70
36798;BME280;22748;8.426;99.512;2023-03-04T02:16:59;101406.16;;;27.32;71.11
36798;BME280;22748;8.426;99.512;2023-03-04T02:19:39;101407.84;;;27.33;70.72
36798;BME280;22748;8.426;99.512;2023-03-04T02:22:13;101402.91;;;27.37;70.98
36798;BME280;22748;8.426;99.512;2023-03-04T02:24:46;101407.09;;;27.39;70.92
36798;BME280;22748;8.426;99.512;2023-03-04T02:27:20;101403.78;;;27.37;71.26
36798;BME280;22748;8.426;99.512;2023-03-04T02:29:51;101407.94;;;27.40;71.55
36798;BME280;22748;8.426;99.512;2023-03-04T02:32:22;101408.41;;;27.43;71.20
36798;BME280;22748;8.426;99.512;2023-03-04T02:34:52;101402.69;;;27.46;70.93
36798;BME280;22748;8.426;99.512;2023-03-04T02:37:23;101404.16;;;27.49;70.64
36798;BME280;22748;8.426;99.512;2023-03-04T02:39:53;101410.03;;;27.53;70.53
36798;BME280;22748;8.426;99.512;2023-03-04T02:42:26;101412.31;;;27.56;70.72
36798;BME280;22748;8.426;99.512;2023-03-04T02:45:00;101416.50;;;27.58;70.55
36798;BME280;22748;8.426;99.512;2023-03-04T02:47:30;101410.78;;;27.61;70.76
36798;BME280;22748;8.426;99.512;2023-03-04T02:50:00;101407.06;;;27.62;70.45
36798;BME280;22748;8.426;99.512;2023-03-04T02:52:30;101406.69;;;27.65;70.96
36798;BME280;22748;8.426;99.512;2023-03-04T02:55:00;101407.81;;;27.71;70.72
36798;BME280;22748;8.426;99.512;2023-03-04T02:57:35;101402.94;;;27.75;70.76
36798;BME280;22748;8.426;99.512;2023-03-04T03:00:07;101406.06;;;27.78;71.26
36798;BME280;22748;8.426;99.512;2023-03-04T03:02:38;101401.19;;;27.82;70.96
36798;BME280;22748;8.426;99.512;2023-03-04T03:05:08;101402.50;;;27.86;70.43
36798;BME280;22748;8.426;99.512;2023-03-04T03:07:39;101406.69;;;27.88;70.71
36798;BME280;22748;8.426;99.512;2023-03-04T03:10:11;101401.78;;;27.92;70.78
36798;BME280;22748;8.426;99.512;2023-03-04T03:12:43;101399.38;;;27.97;70.60
36798;BME280;22748;8.426;99.512;2023-03-04T03:15:14;101402.72;;;27.99;70.24
36798;BME280;22748;8.426;99.512;2023-03-04T03:17:45;101396.97;;;28.02;70.64
36798;BME280;22748;8.426;99.512;2023-03-04T03:20:16;101387.53;;;28.06;70.33
36798;BME280;22748;8.426;99.512;2023-03-04T03:22:47;101394.19;;;28.10;70.12
36798;BME280;22748;8.426;99.512;2023-03-04T03:25:18;101392.16;;;28.13;70.37
36798;BME280;22748;8.426;99.512;2023-03-04T03:27:50;101390.13;;;28.15;70.00
36798;BME280;22748;8.426;99.512;2023-03-04T03:30:21;101393.06;;;28.20;70.74
36798;BME280;22748;8.426;99.512;2023-03-04T03:32:51;101394.38;;;28.24;70.92
36798;BME280;22748;8.426;99.512;2023-03-04T03:35:22;101393.44;;;28.31;70.39
36798;BME280;22748;8.426;99.512;2023-03-04T03:37:53;101383.34;;;28.34;69.96
36798;BME280;22748;8.426;99.512;2023-03-04T03:40:24;101385.00;;;28.35;69.45
36798;BME280;22748;8.426;99.512;2023-03-04T03:42:56;101380.47;;;28.35;69.76
36798;BME280;22748;8.426;99.512;2023-03-04T03:45:26;101374.91;;;28.37;69.24
36798;BME280;22748;8.426;99.512;2023-03-04T03:47:57;101367.66;;;28.37;68.98
36798;BME280;22748;8.426;99.512;2023-03-04T03:50:28;101371.66;;;28.41;68.93
36798;BME280;22748;8.426;99.512;2023-03-04T03:53:01;101365.53;;;28.47;69.33
36798;BME280;22748;8.426;99.512;2023-03-04T03:55:31;101355.72;;;28.55;69.27
36798;BME280;22748;8.426;99.512;2023-03-04T03:58:04;101356.00;;;28.60;68.13
36798;BME280;22748;8.426;99.512;2023-03-04T04:00:40;101347.19;;;28.66;67.76
36798;BME280;22748;8.426;99.512;2023-03-04T04:03:14;101349.28;;;28.70;67.00
36798;BME280;22748;8.426;99.512;2023-03-04T04:05:44;101354.09;;;28.75;65.96
36798;BME280;22748;8.426;99.512;2023-03-04T04:08:15;101342.94;;;28.78;66.10
36798;BME280;22748;8.426;99.512;2023-03-04T04:10:47;101343.59;;;28.80;66.45
36798;BME280;22748;8.426;99.512;2023-03-04T04:13:25;101329.78;;;28.83;66.85
36798;BME280;22748;8.426;99.512;2023-03-04T04:15:57;101334.75;;;28.86;65.77
36798;BME280;22748;8.426;99.512;2023-03-04T04:18:27;101325.94;;;28.92;65.91
36798;BME280;22748;8.426;99.512;2023-03-04T04:21:00;101323.88;;;28.95;66.03
36798;BME280;22748;8.426;99.512;2023-03-04T04:23:31;101313.19;;;29.01;66.16
36798;BME280;22748;8.426;99.512;2023-03-04T04:26:01;101310.22;;;28.96;65.35
36798;BME280;22748;8.426;99.512;2023-03-04T04:28:33;101303.50;;;29.07;65.61
36798;BME280;22748;8.426;99.512;2023-03-04T04:31:07;101300.72;;;29.15;64.96
36798;BME280;22748;8.426;99.512;2023-03-04T04:33:37;101290.22;;;29.20;64.34
36798;BME280;22748;8.426;99.512;2023-03-04T04:36:12;101285.06;;;29.25;64.11
36798;BME280;22748;8.426;99.512;2023-03-04T04:38:43;101282.63;;;29.30;63.76
36798;BME280;22748;8.426;99.512;2023-03-04T04:41:16;101275.19;;;29.32;63.81
36798;BME280;22748;8.426;99.512;2023-03-04T04:43:52;101271.53;;;29.40;63.71
36798;BME280;22748;8.426;99.512;2023-03-04T04:46:40;101269.47;;;29.42;62.99
36798;BME280;22748;8.426;99.512;2023-03-04T04:49:14;101251.44;;;29.43;62.96
36798;BME280;22748;8.426;99.512;2023-03-04T04:51:44;101247.94;;;29.42;63.11
36798;BME280;22748;8.426;99.512;2023-03-04T04:54:15;101244.41;;;29.42;63.41
36798;BME280;22748;8.426;99.512;2023-03-04T04:56:44;101234.66;;;29.41;62.76
36798;BME280;22748;8.426;99.512;2023-03-04T04:59:16;101230.31;;;29.40;62.17
36798;BME280;22748;8.426;99.512;2023-03-04T05:01:47;101231.34;;;29.39;62.66
36798;BME280;22748;8.426;99.512;2023-03-04T05:04:18;101228.66;;;29.39;62.44
36798;BME280;22748;8.426;99.512;2023-03-04T05:06:49;101219.78;;;29.45;62.45
36798;BME280;22748;8.426;99.512;2023-03-04T05:09:19;101217.97;;;29.52;62.05
36798;BME280;22748;8.426;99.512;2023-03-04T05:11:49;101211.16;;;29.56;62.20
36798;BME280;22748;8.426;99.512;2023-03-04T05:14:22;101203.53;;;29.60;62.05
36798;BME280;22748;8.426;99.512;2023-03-04T05:16:52;101195.84;;;29.63;62.14
36798;BME280;22748;8.426;99.512;2023-03-04T05:19:23;101187.41;;;29.66;61.60
36798;BME280;22748;8.426;99.512;2023-03-04T05:21:53;101180.41;;;29.72;61.81
36798;BME280;22748;8.426;99.512;2023-03-04T05:24:24;101172.75;;;29.76;61.10
36798;BME280;22748;8.426;99.512;2023-03-04T05:26:54;101182.72;;;29.82;60.70
36798;BME280;22748;8.426;99.512;2023-03-04T05:29:26;101174.84;;;29.87;59.89
36798;BME280;22748;8.426;99.512;2023-03-04T05:31:56;101172.00;;;29.95;59.46
36798;BME280;22748;8.426;99.512;2023-03-04T05:34:31;101173.25;;;29.99;59.02
36798;BME280;22748;8.426;99.512;2023-03-04T05:37:01;101167.44;;;30.02;59.53
36798;BME280;22748;8.426;99.512;2023-03-04T05:39:33;101161.84;;;30.04;59.75
36798;BME280;22748;8.426;99.512;2023-03-04T05:42:03;101146.31;;;30.06;59.47
36798;BME280;22748;8.426;99.512;2023-03-04T05:44:35;101152.53;;;30.06;59.63
36798;BME280;22748;8.426;99.512;2023-03-04T05:47:05;101145.09;;;30.08;59.10
36798;BME280;22748;8.426;99.512;2023-03-04T05:49:35;101137.63;;;30.10;59.31
36798;BME280;22748;8.426;99.512;2023-03-04T05:52:10;101140.13;;;30.05;59.20
36798;BME280;22748;8.426;99.512;2023-03-04T05:54:41;101130.16;;;29.99;58.38
36798;BME280;22748;8.426;99.512;2023-03-04T05:57:12;101127.28;;;30.07;58.45
36798;BME280;22748;8.426;99.512;2023-03-04T05:59:43;101121.47;;;30.10;57.94
36798;BME280;22748;8.426;99.512;2023-03-04T06:02:15;101114.84;;;30.20;58.46
36798;BME280;22748;8.426;99.512;2023-03-04T06:04:46;101108.44;;;30.21;57.87
36798;BME280;22748;8.426;99.512;2023-03-04T06:07:17;101102.00;;;30.22;57.64
36798;BME280;22748;8.426;99.512;2023-03-04T06:09:47;101099.09;;;30.23;58.17
36798;BME280;22748;8.426;99.512;2023-03-04T06:12:19;101086.88;;;30.21;57.46
36798;BME280;22748;8.426;99.512;2023-03-04T06:14:52;101089.97;;;30.24;57.23
36798;BME280;22748;8.426;99.512;2023-03-04T06:17:22;101085.22;;;30.33;56.33
36798;BME280;22748;8.426;99.512;2023-03-04T06:19:52;101085.84;;;30.35;56.97
36798;BME280;22748;8.426;99.512;2023-03-04T06:22:24;101078.78;;;30.27;56.12
36798;BME280;22748;8.426;99.512;2023-03-04T06:24:55;101070.91;;;30.26;56.05
36798;BME280;22748;8.426;99.512;2023-03-04T06:27:25;101067.59;;;30.24;56.54
36798;BME280;22748;8.426;99.512;2023-03-04T06:29:58;101070.94;;;30.32;55.76
36798;BME280;22748;8.426;99.512;2023-03-04T06:32:29;101058.06;;;30.41;55.95
36798;BME280;22748;8.426;99.512;2023-03-04T06:34:59;101044.41;;;30.43;55.80
36798;BME280;22748;8.426;99.512;2023-03-04T06:37:29;101042.09;;;30.46;54.66
36798;BME280;22748;8.426;99.512;2023-03-04T06:40:00;101036.50;;;30.54;54.35
36798;BME280;22748;8.426;99.512;2023-03-04T06:42:32;101025.06;;;30.59;54.26
36798;BME280;22748;8.426;99.512;2023-03-04T06:45:06;101025.69;;;30.61;54.03
36798;BME280;22748;8.426;99.512;2023-03-04T06:47:36;101026.53;;;30.55;54.90
36798;BME280;22748;8.426;99.512;2023-03-04T06:50:06;101022.00;;;30.55;55.34
36798;BME280;22748;8.426;99.512;2023-03-04T06:52:40;101012.44;;;30.46;54.87
36798;BME280;22748;8.426;99.512;2023-03-04T06:55:11;101013.06;;;30.48;54.83
36798;BME280;22748;8.426;99.512;2023-03-04T06:57:41;101012.03;;;30.49;55.39
36798;BME280;22748;8.426;99.512;2023-03-04T07:00:14;101016.19;;;30.45;54.95
36798;BME280;22748;8.426;99.512;2023-03-04T07:02:45;100998.34;;;30.44;53.96
36798;BME280;22748;8.426;99.512;2023-03-04T07:05:15;101008.72;;;30.47;53.48
36798;BME280;22748;8.426;99.512;2023-03-04T07:07:46;101003.34;;;30.47;53.90
36798;BME280;22748;8.426;99.512;2023-03-04T07:10:18;101014.13;;;30.47;54.34
36798;BME280;22748;8.426;99.512;2023-03-04T07:12:48;101012.03;;;30.49;54.85
36798;BME280;22748;8.426;99.512;2023-03-04T07:15:23;101012.06;;;30.36;53.70
36798;BME280;22748;8.426;99.512;2023-03-04T07:17:54;101009.56;;;30.41;53.92
36798;BME280;22748;8.426;99.512;2023-03-04T07:20:25;101016.19;;;30.45;54.68
36798;BME280;22748;8.426;99.512;2023-03-04T07:22:55;101024.91;;;30.47;55.41
36798;BME280;22748;8.426;99.512;2023-03-04T07:25:26;101025.56;;;30.36;55.67
36798;BME280;22748;8.426;99.512;2023-03-04T07:27:55;101020.34;;;30.14;54.84
36798;BME280;22748;8.426;99.512;2023-03-04T07:30:29;101018.28;;;30.17;54.85
36798;BME280;22748;8.426;99.512;2023-03-04T07:33:01;101008.34;;;30.10;54.70
36798;BME280;22748;8.426;99.512;2023-03-04T07:35:34;101013.53;;;30.12;54.84
36798;BME280;22748;8.426;99.512;2023-03-04T07:38:06;101010.41;;;30.15;55.21
36798;BME280;22748;8.426;99.512;2023-03-04T07:40:38;100999.41;;;30.23;55.05
36798;BME280;22748;8.426;99.512;2023-03-04T07:43:11;101000.47;;;30.29;54.66
36798;BME280;22748;8.426;99.512;2023-03-04T07:45:45;100996.75;;;30.30;55.20
36798;BME280;22748;8.426;99.512;2023-03-04T07:48:15;101000.25;;;30.37;55.20
36798;BME280;22748;8.426;99.512;2023-03-04T07:50:50;100996.28;;;30.26;55.61
36798;BME280;22748;8.426;99.512;2023-03-04T07:53:20;100984.50;;;30.21;55.92
36798;BME280;22748;8.426;99.512;2023-03-04T07:55:51;100983.63;;;30.27;56.09
36798;BME280;22748;8.426;99.512;2023-03-04T07:58:22;100972.50;;;30.30;55.88
36798;BME280;22748;8.426;99.512;2023-03-04T08:00:54;100971.03;;;30.34;55.54
36798;BME280;22748;8.426;99.512;2023-03-04T08:03:25;100957.75;;;30.39;55.63
36798;BME280;22748;8.426;99.512;2023-03-04T08:05:56;100946.13;;;30.45;55.28
36798;BME280;22748;8.426;99.512;2023-03-04T08:08:27;100951.09;;;30.48;55.26
36798;BME280;22748;8.426;99.512;2023-03-04T08:10:57;100946.94;;;30.52;55.82
36798;BME280;22748;8.426;99.512;2023-03-04T08:13:28;100941.75;;;30.58;55.38
36798;BME280;22748;8.426;99.512;2023-03-04T08:16:03;100937.59;;;30.55;55.01
36798;BME280;22748;8.426;99.512;2023-03-04T08:18:36;100942.38;;;30.60;55.02
36798;BME280;22748;8.426;99.512;2023-03-04T08:21:09;100932.78;;;30.64;54.33
36798;BME280;22748;8.426;99.512;2023-03-04T08:23:40;100934.84;;;30.62;53.97
36798;BME280;22748;8.426;99.512;2023-03-04T08:26:15;100935.31;;;30.59;53.84
36798;BME280;22748;8.426;99.512;2023-03-04T08:28:51;100922.22;;;30.62;54.07
36798;BME280;22748;8.426;99.512;2023-03-04T08:31:27;100919.69;;;30.74;53.40
36798;BME280;22748;8.426;99.512;2023-03-04T08:33:58;100912.03;;;30.71;52.99
36798;BME280;22748;8.426;99.512;2023-03-04T08:36:28;100913.47;;;30.73;52.81
36798;BME280;22748;8.426;99.512;2023-03-04T08:38:58;100914.97;;;30.63;52.25
36798;BME280;22748;8.426;99.512;2023-03-04T08:41:38;100908.09;;;30.67;53.30
36798;BME280;22748;8.426;99.512;2023-03-04T08:44:08;100907.88;;;30.75;51.90
36798;BME280;22748;8.426;99.512;2023-03-04T08:46:43;100904.28;;;30.81;51.91
36798;BME280;22748;8.426;99.512;2023-03-04T08:49:13;100906.56;;;30.91;51.78
36798;BME280;22748;8.426;99.512;2023-03-04T08:51:45;100900.72;;;30.94;51.80
36798;BME280;22748;8.426;99.512;2023-03-04T08:54:20;100894.97;;;30.84;51.29
36798;BME280;22748;8.426;99.512;2023-03-04T08:56:53;100889.97;;;30.87;51.97
36798;BME280;22748;8.426;99.512;2023-03-04T08:59:25;100895.38;;;30.87;51.91
36798;BME280;22748;8.426;99.512;2023-03-04T09:01:58;100893.03;;;30.98;52.00
36798;BME280;22748;8.426;99.512;2023-03-04T09:04:28;100894.06;;;30.96;52.23
36798;BME280;22748;8.426;99.512;2023-03-04T09:06:58;100896.13;;;31.01;52.17
36798;BME280;22748;8.426;99.512;2023-03-04T09:09:28;100901.09;;;31.04;52.19
36798;BME280;22748;8.426;99.512;2023-03-04T09:11:58;100902.34;;;31.02;51.97
36798;BME280;22748;8.426;99.512;2023-03-04T09:14:28;100900.34;;;30.90;52.26
36798;BME280;22748;8.426;99.512;2023-03-04T09:17:01;100898.63;;;30.96;52.25
36798;BME280;22748;8.426;99.512;2023-03-04T09:19:31;100901.28;;;31.03;51.58
36798;BME280;22748;8.426;99.512;2023-03-04T09:22:04;100910.19;;;31.10;52.07
36798;BME280;22748;8.426;99.512;2023-03-04T09:24:36;100906.00;;;31.14;51.94
36798;BME280;22748;8.426;99.512;2023-03-04T09:27:08;100900.59;;;31.14;51.89
36798;BME280;22748;8.426;99.512;2023-03-04T09:29:40;100909.75;;;31.13;51.83
36798;BME280;22748;8.426;99.512;2023-03-04T09:32:13;100915.59;;;31.10;51.95
36798;BME280;22748;8.426;99.512;2023-03-04T09:34:44;100915.59;;;31.10;52.27
36798;BME280;22748;8.426;99.512;2023-03-04T09:37:13;100913.50;;;31.05;51.98
36798;BME280;22748;8.426;99.512;2023-03-04T09:39:46;100906.47;;;31.04;51.83
36798;BME280;22748;8.426;99.512;2023-03-04T09:42:24;100912.28;;;31.08;51.66
36798;BME280;22748;8.426;99.512;2023-03-04T09:44:54;100911.38;;;31.14;50.60
36798;BME280;22748;8.426;99.512;2023-03-04T09:47:29;100912.59;;;31.18;50.56
36798;BME280;22748;8.426;99.512;2023-03-04T09:50:05;100916.38;;;31.17;51.24
36798;BME280;22748;8.426;99.512;2023-03-04T09:52:48;100916.19;;;31.12;50.86
36798;BME280;22748;8.426;99.512;2023-03-04T09:55:27;100914.53;;;31.11;51.62
36798;BME280;22748;8.426;99.512;2023-03-04T09:58:02;100921.84;;;31.04;51.13
36798;BME280;22748;8.426;99.512;2023-03-04T10:00:38;100923.03;;;31.14;50.35
36798;BME280;22748;8.426;99.512;2023-03-04T10:03:16;100921.31;;;31.20;51.18
36798;BME280;22748;8.426;99.512;2023-03-04T10:05:52;100922.97;;;31.21;51.21
36798;BME280;22748;8.426;99.512;2023-03-04T10:08:40;100923.59;;;31.23;51.44
36798;BME280;22748;8.426;99.512;2023-03-04T10:11:14;100930.06;;;31.15;51.67
36798;BME280;22748;8.426;99.512;2023-03-04T10:13:56;100936.72;;;31.13;52.01
36798;BME280;22748;8.426;99.512;2023-03-04T10:16:32;100932.97;;;31.14;51.83
36798;BME280;22748;8.426;99.512;2023-03-04T10:19:27;100934.63;;;31.15;51.75
36798;BME280;22748;8.426;99.512;2023-03-04T10:21:59;100934.19;;;31.18;51.26
36798;BME280;22748;8.426;99.512;2023-03-04T10:24:33;100938.00;;;31.10;52.09
36798;BME280;22748;8.426;99.512;2023-03-04T10:27:10;100941.34;;;31.06;52.44
36798;BME280;22748;8.426;99.512;2023-03-04T10:29:41;100946.28;;;31.09;52.71
36798;BME280;22748;8.426;99.512;2023-03-04T10:32:13;100950.22;;;31.13;52.27
36798;BME280;22748;8.426;99.512;2023-03-04T10:34:47;100951.69;;;31.09;52.41
36798;BME280;22748;8.426;99.512;2023-03-04T10:37:19;100958.41;;;30.93;52.85
36798;BME280;22748;8.426;99.512;2023-03-04T10:39:51;100961.53;;;30.83;52.71
36798;BME280;22748;8.426;99.512;2023-03-04T10:42:27;100967.78;;;30.90;52.86
36798;BME280;22748;8.426;99.512;2023-03-04T10:45:03;100973.09;;;31.04;52.66
36798;BME280;22748;8.426;99.512;2023-03-04T10:47:52;100980.81;;;30.93;51.88
36798;BME280;22748;8.426;99.512;2023-03-04T10:50:26;100968.97;;;31.01;51.97
36798;BME280;22748;8.426;99.512;2023-03-04T10:52:58;100989.03;;;31.12;52.22
36798;BME280;22748;8.426;99.512;2023-03-04T10:55:29;100984.47;;;31.12;52.00
36798;BME280;22748;8.426;99.512;2023-03-04T10:58:14;100982.22;;;31.03;52.40
36798;BME280;22748;8.426;99.512;2023-03-04T11:00:57;100982.47;;;30.94;52.77
36798;BME280;22748;8.426;99.512;2023-03-04T11:03:31;100988.25;;;30.98;53.17
36798;BME280;22748;8.426;99.512;2023-03-04T11:06:11;100989.28;;;31.04;52.74
36798;BME280;22748;8.426;99.512;2023-03-04T11:08:53;100998.19;;;31.04;53.58
36798;BME280;22748;8.426;99.512;2023-03-04T11:11:31;100996.56;;;31.03;53.76
36798;BME280;22748;8.426;99.512;2023-03-04T11:14:16;101003.63;;;30.98;53.93
36798;BME280;22748;8.426;99.512;2023-03-04T11:17:22;101009.44;;;30.94;54.29
36798;BME280;22748;8.426;99.512;2023-03-04T11:20:00;101015.25;;;30.91;54.64
36798;BME280;22748;8.426;99.512;2023-03-04T11:22:37;101012.16;;;30.94;54.58
36798;BME280;22748;8.426;99.512;2023-03-04T11:25:22;101018.41;;;30.88;54.70
36798;BME280;22748;8.426;99.512;2023-03-04T11:27:58;101016.50;;;30.82;54.41
36798;BME280;22748;8.426;99.512;2023-03-04T11:30:37;101023.16;;;30.86;54.59
36798;BME280;22748;8.426;99.512;2023-03-04T11:33:20;101028.13;;;30.76;54.52
36798;BME280;22748;8.426;99.512;2023-03-04T11:36:05;101025.44;;;30.76;54.85
36798;BME280;22748;8.426;99.512;2023-03-04T11:38:41;101038.97;;;30.63;54.88
36798;BME280;22748;8.426;99.512;2023-03-04T11:41:15;101044.13;;;30.71;54.60
36798;BME280;22748;8.426;99.512;2023-03-04T11:43:50;101048.91;;;30.69;54.72
36798;BME280;22748;8.426;99.512;2023-03-04T11:46:43;101053.47;;;30.75;54.81
36798;BME280;22748;8.426;99.512;2023-03-04T11:49:30;101061.28;;;30.83;54.53
36798;BME280;22748;8.426;99.512;2023-03-04T11:52:11;101066.94;;;30.88;54.90
36798;BME280;22748;8.426;99.512;2023-03-04T11:55:01;101071.28;;;30.76;54.99
36798;BME280;22748;8.426;99.512;2023-03-04T11:57:35;101071.28;;;30.76;55.26
36798;BME280;22748;8.426;99.512;2023-03-04T12:06:13;101086.00;;;30.87;55.76
36798;BME280;22748;8.426;99.512;2023-03-04T12:11:58;101089.94;;;30.91;55.78
36798;BME280;22748;8.426;99.512;2023-03-04T12:14:35;101091.59;;;30.92;55.35
36798;BME280;22748;8.426;99.512;2023-03-04T12:17:26;101102.19;;;30.93;55.63
36798;BME280;22748;8.426;99.512;2023-03-04T12:23:06;101106.94;;;30.98;55.55
36798;BME280;22748;8.426;99.512;2023-03-04T12:25:43;101105.06;;;30.99;55.44
36798;BME280;22748;8.426;99.512;2023-03-04T12:28:38;101108.59;;;30.99;55.83
36798;BME280;22748;8.426;99.512;2023-03-04T12:31:32;101103.41;;;30.98;55.61
36798;BME280;22748;8.426;99.512;2023-03-04T12:34:38;101112.31;;;30.98;55.72
36798;BME280;22748;8.426;99.512;2023-03-04T12:37:36;101107.75;;;30.99;55.66
36798;BME280;22748;8.426;99.512;2023-03-04T12:40:31;101122.28;;;30.98;56.09
36798;BME280;22748;8.426;99.512;2023-03-04T12:46:05;101130.19;;;30.99;56.08
36798;BME280;22748;8.426;99.512;2023-03-04T12:48:40;101132.66;;;31.01;55.99
36798;BME280;22748;8.426;99.512;2023-03-04T12:51:22;101144.50;;;31.00;56.08
36798;BME280;22748;8.426;99.512;2023-03-04T12:54:07;101149.88;;;31.00;56.35
36798;BME280;22748;8.426;99.512;2023-03-04T12:56:44;101158.81;;;31.00;55.92
36798;BME280;22748;8.426;99.512;2023-03-04T12:59:17;101162.31;;;31.01;55.75
36798;BME280;22748;8.426;99.512;2023-03-04T13:01:58;101153.41;;;31.00;56.00
36798;BME280;22748;8.426;99.512;2023-03-04T13:04:40;101143.44;;;31.01;56.20
36798;BME280;22748;8.426;99.512;2023-03-04T13:07:20;101165.00;;;31.01;56.11
36798;BME280;22748;8.426;99.512;2023-03-04T13:10:00;101165.00;;;31.01;55.66
36798;BME280;22748;8.426;99.512;2023-03-04T13:12:47;101167.94;;;30.99;55.92
36798;BME280;22748;8.426;99.512;2023-03-04T13:15:34;101176.84;;;31.00;55.72
36798;BME280;22748;8.426;99.512;2023-03-04T13:18:34;101174.16;;;31.00;56.21
36798;BME280;22748;8.426;99.512;2023-03-04T13:21:14;101167.94;;;30.99;55.94
36798;BME280;22748;8.426;99.512;2023-03-04T13:23:45;101180.59;;;30.99;55.95
36798;BME280;22748;8.426;99.512;2023-03-04T13:26:20;101177.88;;;30.99;56.52
36798;BME280;22748;8.426;99.512;2023-03-04T13:28:54;101189.09;;;30.95;56.21
36798;BME280;22748;8.426;99.512;2023-03-04T13:31:29;101184.75;;;30.94;56.29
36798;BME280;22748;8.426;99.512;2023-03-04T13:34:03;101194.94;;;30.92;56.60
36798;BME280;22748;8.426;99.512;2023-03-04T13:36:56;101197.00;;;30.90;56.58
36798;BME280;22748;8.426;99.512;2023-03-04T13:39:43;101198.47;;;30.86;56.91